Time;durP1;ratioP1;P1;durP2;ratioP2;P2;SDS_P1;SDS_P2;PMS_P1;PMS_P2;Temp;Humidity;BMP_temperature;BMP_pressure;BME280_temperature;BME280_humidity;BME280_pressure;Samples;Min_cycle;Max_cycle;Signal;HPM_P1;HPM_P2
2022/01/02 00:02:12;;;;;;;15.50;13.10;;;;;;;9.95;86.13;100763.00;10481473;27;20046;-66
2022/01/02 00:07:16;;;;;;;15.45;13.50;;;;;;;9.88;86.32;100751.94;10485561;27;20159;-66
2022/01/02 00:12:22;;;;;;;17.30;15.40;;;;;;;9.81;86.34;100734.72;10486635;27;20602;-66
2022/01/02 00:17:23;;;;;;;15.70;13.88;;;;;;;9.70;86.24;100722.19;10487711;27;20465;-67
2022/01/02 00:22:34;;;;;;;16.27;14.63;;;;;;;9.67;86.20;100706.44;10496505;27;20048;-66
2022/01/02 00:27:36;;;;;;;17.60;15.70;;;;;;;9.69;86.04;100720.47;10488883;27;20114;-67
2022/01/02 00:32:37;;;;;;;18.65;16.75;;;;;;;9.72;86.43;100727.38;10494019;27;20052;-66
2022/01/02 00:37:40;;;;;;;16.83;15.13;;;;;;;9.83;85.67;100724.84;10497098;27;20052;-66
2022/01/02 00:42:43;;;;;;;16.80;15.07;;;;;;;9.79;85.56;100719.81;10495101;27;20044;-66
2022/01/02 00:48:19;;;;;;;16.65;14.35;;;;;;;9.77;86.00;100711.94;10484039;27;20048;-68
2022/01/02 00:53:25;;;;;;;14.88;12.65;;;;;;;9.67;87.68;100701.13;10488208;27;20047;-66
2022/01/02 00:58:48;;;;;;;14.23;12.70;;;;;;;9.71;88.73;100704.41;10496308;27;20205;-66
2022/01/02 01:03:54;;;;;;;15.50;12.35;;;;;;;9.60;89.20;100709.63;10489466;27;20119;-67
2022/01/02 01:08:58;;;;;;;13.85;11.43;;;;;;;9.61;89.77;100711.31;10486279;27;20119;-66
2022/01/02 01:14:00;;;;;;;15.53;11.93;;;;;;;9.56;90.49;100714.28;10492878;27;20050;-66
2022/01/02 01:19:02;;;;;;;13.98;12.45;;;;;;;9.50;90.71;100698.78;10492526;27;20056;-66
2022/01/02 01:24:03;;;;;;;14.10;11.93;;;;;;;9.46;90.97;100682.22;10488271;27;20055;-66
2022/01/02 01:29:05;;;;;;;13.65;11.88;;;;;;;9.49;90.56;100676.69;10493066;27;20048;-66
2022/01/02 01:34:06;;;;;;;14.73;11.65;;;;;;;9.40;91.00;100666.69;10487706;27;20032;-66
2022/01/02 01:39:08;;;;;;;14.93;11.85;;;;;;;9.29;91.56;100663.91;10490323;27;20052;-66
2022/01/02 01:49:16;;;;;;;13.75;11.32;;;;;;;9.38;90.94;100665.94;10491501;27;20048;-66
2022/01/02 01:54:17;;;;;;;14.70;12.03;;;;;;;9.31;91.12;100662.84;10490507;27;20123;-67
2022/01/02 01:59:23;;;;;;;14.35;12.82;;;;;;;9.26;91.34;100672.94;10461170;22;20062;-61
2022/01/02 02:04:24;;;;;;;16.52;11.80;;;;;;;9.24;91.70;100658.06;10445078;28;20055;-61
2022/01/02 02:09:32;;;;;;;15.73;12.88;;;;;;;9.27;90.91;100652.56;10445859;28;20122;-60
2022/01/02 02:14:36;;;;;;;15.00;12.80;;;;;;;9.29;90.32;100643.53;10455694;28;20453;-61
2022/01/02 02:19:37;;;;;;;17.20;13.27;;;;;;;9.27;90.46;100633.94;10449818;28;20050;-60
2022/01/02 02:24:40;;;;;;;14.05;12.65;;;;;;;9.26;90.42;100621.63;10436796;28;20286;-61
2022/01/02 02:29:41;;;;;;;14.70;12.98;;;;;;;9.21;90.83;100640.53;10450775;28;20131;-60
2022/01/02 02:34:44;;;;;;;16.55;12.93;;;;;;;9.20;89.94;100605.16;10439557;28;20147;-61
2022/01/02 02:39:45;;;;;;;14.48;12.43;;;;;;;9.09;89.97;100574.97;10446169;28;20062;-60
2022/01/02 02:44:56;;;;;;;16.92;14.10;;;;;;;9.30;90.12;100596.53;10447219;28;20151;-61
2022/01/02 02:49:58;;;;;;;17.77;13.98;;;;;;;9.07;90.57;100585.72;10452116;28;20044;-60
2022/01/02 02:54:59;;;;;;;15.73;13.27;;;;;;;9.18;90.09;100599.09;10448415;28;20036;-60
2022/01/02 03:00:01;;;;;;;15.50;13.88;;;;;;;9.09;90.48;100626.28;10444300;28;20247;-60
2022/01/02 03:05:02;;;;;;;18.77;13.73;;;;;;;9.18;90.37;100625.66;10452307;28;20048;-61
2022/01/02 03:10:08;;;;;;;17.50;14.15;;;;;;;9.30;89.76;100623.09;10448207;28;20139;-61
2022/01/02 03:15:09;;;;;;;17.85;13.82;;;;;;;9.32;89.52;100613.22;10443852;28;20053;-61
2022/01/02 03:20:11;;;;;;;15.40;12.93;;;;;;;9.36;89.12;100586.31;10448459;28;20128;-60
2022/01/02 03:25:15;;;;;;;20.02;15.73;;;;;;;9.28;88.99;100577.22;10454344;28;20491;-60
2022/01/02 03:30:16;;;;;;;13.27;10.77;;;;;;;9.13;89.73;100550.75;10447640;28;20053;-60
2022/01/02 03:35:17;;;;;;;17.85;14.18;;;;;;;9.07;90.17;100542.34;10449867;28;20040;-60
2022/01/02 03:40:19;;;;;;;19.38;14.63;;;;;;;8.95;90.15;100538.78;10442193;28;20161;-60
2022/01/02 03:45:21;;;;;;;15.32;13.68;;;;;;;8.80;91.06;100540.69;10451161;28;20469;-60
2022/01/02 03:50:22;;;;;;;15.50;13.38;;;;;;;8.75;91.12;100533.03;10465150;28;20041;-61
2022/01/02 03:55:24;;;;;;;18.02;14.65;;;;;;;8.93;91.08;100551.28;10457235;28;20497;-61
2022/01/02 04:00:25;;;;;;;16.20;14.30;;;;;;;8.80;91.31;100541.50;10455384;28;20115;-60
2022/01/02 04:05:27;;;;;;;16.92;15.13;;;;;;;8.90;90.60;100536.41;10451744;28;20522;-61
2022/01/02 04:10:28;;;;;;;15.57;13.93;;;;;;;8.96;90.44;100545.75;10458486;28;20049;-61
2022/01/02 04:15:30;;;;;;;18.42;13.70;;;;;;;8.99;89.55;100538.44;10445234;28;20131;-61
2022/01/02 04:20:31;;;;;;;17.90;14.00;;;;;;;8.92;90.06;100525.72;10461807;28;20044;-62
2022/01/02 04:25:33;;;;;;;15.18;13.30;;;;;;;8.69;90.39;100503.38;10460605;28;20140;-61
2022/01/02 04:30:34;;;;;;;18.98;12.60;;;;;;;8.69;90.83;100516.66;10443349;28;20685;-61
2022/01/02 04:35:36;;;;;;;15.70;13.30;;;;;;;8.51;90.88;100508.16;10450037;28;20548;-61
2022/01/02 04:40:37;;;;;;;14.85;13.18;;;;;;;8.47;91.54;100496.91;10461441;28;20125;-61
2022/01/02 04:45:39;;;;;;;16.48;12.32;;;;;;;8.49;92.08;100502.94;10456977;28;20128;-61
2022/01/02 04:50:40;;;;;;;14.05;12.50;;;;;;;8.68;90.93;100510.50;10443814;28;20130;-60
2022/01/02 04:55:42;;;;;;;14.82;13.32;;;;;;;8.63;90.85;100507.31;10458945;28;20200;-61
2022/01/02 05:00:44;;;;;;;17.25;15.45;;;;;;;8.64;90.22;100491.28;10455282;28;20049;-61
2022/01/02 05:05:45;;;;;;;19.00;17.17;;;;;;;8.51;90.52;100463.88;10453334;28;20055;-61
2022/01/02 05:10:47;;;;;;;14.25;12.50;;;;;;;8.68;90.27;100486.63;10453528;28;20045;-60
2022/01/02 05:15:49;;;;;;;14.93;13.10;;;;;;;8.61;90.11;100474.72;10454465;28;20037;-61
2022/01/02 05:27:13;;;;;;;18.10;14.57;;;;;;;8.67;89.60;100498.19;10454796;28;20049;-60
2022/01/02 05:32:14;;;;;;;15.75;12.90;;;;;;;8.55;90.62;100493.72;10457406;28;20135;-61
2022/01/02 05:37:15;;;;;;;15.88;13.35;;;;;;;8.57;90.68;100486.50;10456710;28;20159;-60
2022/01/02 05:42:17;;;;;;;13.18;11.48;;;;;;;8.63;90.72;100491.38;10458201;28;20072;-61
2022/01/02 05:47:18;;;;;;;14.82;13.20;;;;;;;8.71;89.64;100462.53;10458261;28;20116;-62
2022/01/02 05:52:19;;;;;;;14.40;12.68;;;;;;;8.79;88.98;100462.00;10475604;28;20052;-61
2022/01/02 05:57:21;;;;;;;14.63;12.88;;;;;;;8.83;88.98;100488.22;10481468;28;20053;-62
2022/01/02 06:02:23;;;;;;;14.38;12.32;;;;;;;8.84;88.59;100470.47;10477605;28;20274;-61
2022/01/02 06:07:24;;;;;;;14.02;12.52;;;;;;;8.62;88.45;100426.00;10478440;28;20059;-61
2022/01/02 06:12:26;;;;;;;16.35;13.45;;;;;;;8.64;89.02;100440.84;10484660;28;20057;-62
2022/01/02 06:17:27;;;;;;;14.32;12.82;;;;;;;8.62;89.42;100447.25;10493842;28;20074;-62
2022/01/02 06:22:29;;;;;;;14.23;11.90;;;;;;;8.76;89.47;100448.94;10482299;28;20596;-61
2022/01/02 06:27:30;;;;;;;14.52;12.55;;;;;;;8.87;88.32;100443.69;10496537;28;20044;-61
2022/01/02 06:32:31;;;;;;;13.25;10.85;;;;;;;8.73;88.34;100428.75;10482618;28;20239;-62
2022/01/02 06:37:34;;;;;;;13.80;11.18;;;;;;;8.85;88.40;100443.81;10493990;28;20074;-62
2022/01/02 06:42:35;;;;;;;14.65;12.88;;;;;;;8.66;88.39;100423.03;10492249;28;20048;-62
2022/01/02 06:47:36;;;;;;;12.68;11.38;;;;;;;8.77;88.07;100427.59;10497432;28;20052;-62
2022/01/02 06:52:39;;;;;;;12.52;11.23;;;;;;;8.73;88.05;100434.06;10486423;28;20051;-61
2022/01/02 06:57:40;;;;;;;14.00;12.23;;;;;;;8.72;88.29;100427.06;10491945;27;20045;-62
2022/01/02 07:02:42;;;;;;;13.73;11.98;;;;;;;8.80;87.59;100448.59;10485999;28;20056;-59
2022/01/02 07:07:45;;;;;;;13.85;12.20;;;;;;;8.89;87.76;100448.91;10488290;28;20072;-60
2022/01/02 07:12:47;;;;;;;12.88;11.57;;;;;;;8.88;87.09;100432.13;10483912;28;20052;-58
2022/01/02 07:17:49;;;;;;;12.90;10.93;;;;;;;8.82;87.05;100449.34;10490490;28;20147;-60
2022/01/02 07:22:50;;;;;;;13.10;11.80;;;;;;;8.66;87.68;100408.91;10516338;28;20064;-59
2022/01/02 07:27:52;;;;;;;13.00;11.70;;;;;;;8.82;86.92;100420.13;10513634;28;20231;-61
2022/01/02 07:32:53;;;;;;;12.13;10.88;;;;;;;8.79;87.45;100415.03;10522826;28;20078;-59
2022/01/02 07:37:55;;;;;;;12.77;11.38;;;;;;;8.82;87.41;100406.88;10514896;28;20068;-59
2022/01/02 07:42:57;;;;;;;15.77;12.20;;;;;;;8.76;87.21;100412.63;10520660;28;20056;-59
2022/01/02 07:47:58;;;;;;;14.05;11.07;;;;;;;8.79;86.76;100382.34;10507223;28;20072;-59
2022/01/02 07:53:04;;;;;;;16.88;12.38;;;;;;;8.83;87.40;100382.03;10505062;27;20053;-60
2022/01/02 07:58:05;;;;;;;14.63;12.27;;;;;;;8.85;86.89;100398.69;10513426;28;20087;-59
2022/01/02 08:03:07;;;;;;;13.18;11.23;;;;;;;8.85;86.40;100374.78;10480772;28;20060;-60
2022/01/02 08:08:13;;;;;;;12.57;11.23;;;;;;;8.96;86.26;100387.31;10477054;28;20529;-59
2022/01/02 08:13:14;;;;;;;13.27;11.45;;;;;;;8.82;85.97;100364.41;10461438;28;20124;-58
2022/01/02 08:18:16;;;;;;;11.68;9.98;;;;;;;8.94;85.48;100389.22;10465032;28;20067;-59
2022/01/02 08:23:17;;;;;;;11.38;9.52;;;;;;;8.95;85.57;100380.31;10473303;28;20275;-59
2022/01/02 08:28:19;;;;;;;12.63;11.05;;;;;;;8.88;85.63;100383.50;10467953;28;20043;-58
2022/01/02 08:33:20;;;;;;;13.30;11.57;;;;;;;8.95;85.26;100367.03;10459426;28;20309;-58
2022/01/02 08:38:23;;;;;;;12.45;11.07;;;;;;;8.98;85.08;100366.81;10469101;28;20048;-58
2022/01/02 08:43:24;;;;;;;11.65;10.45;;;;;;;8.80;85.51;100339.78;10462239;28;20878;-59
2022/01/02 08:48:25;;;;;;;10.60;9.40;;;;;;;9.05;85.27;100321.22;10465394;28;20590;-58
2022/01/02 08:53:27;;;;;;;13.30;10.80;;;;;;;9.03;84.00;100314.22;10463588;28;20391;-58
2022/01/02 08:58:28;;;;;;;14.45;10.88;;;;;;;8.93;85.27;100313.22;10458412;28;20202;-60
2022/01/02 09:03:30;;;;;;;11.77;10.45;;;;;;;8.90;85.39;100304.59;10458701;28;20159;-58
2022/01/02 09:08:32;;;;;;;11.82;10.38;;;;;;;9.01;84.85;100323.28;10459372;28;20053;-58
2022/01/02 09:13:33;;;;;;;11.85;10.65;;;;;;;9.01;84.15;100315.31;10458880;28;20426;-59
2022/01/02 09:18:35;;;;;;;11.73;9.88;;;;;;;9.08;84.09;100319.19;10460708;28;20048;-59
2022/01/02 09:23:36;;;;;;;12.00;10.52;;;;;;;9.03;83.80;100292.97;10460262;28;20052;-58
2022/01/02 09:28:38;;;;;;;12.15;10.15;;;;;;;9.28;83.82;100319.56;10457369;28;20051;-59
2022/01/02 09:33:39;;;;;;;12.75;11.45;;;;;;;9.33;82.79;100336.81;10459971;28;20067;-59
2022/01/02 09:38:42;;;;;;;12.30;10.30;;;;;;;9.41;83.04;100341.56;10450750;28;20098;-59
2022/01/02 09:43:43;;;;;;;13.30;11.18;;;;;;;9.40;82.18;100318.63;10457187;28;21046;-59
2022/01/02 09:48:45;;;;;;;12.05;10.80;;;;;;;9.42;82.14;100303.41;10462774;28;20681;-58
2022/01/02 09:53:47;;;;;;;13.15;10.95;;;;;;;9.32;81.85;100302.41;10458220;28;20048;-59
2022/01/02 09:58:49;;;;;;;11.45;10.25;;;;;;;9.35;81.59;100295.06;10456250;28;20535;-59
2022/01/02 10:03:54;;;;;;;12.13;10.55;;;;;;;9.20;81.88;100281.13;10446560;28;20052;-58
2022/01/02 10:08:55;;;;;;;12.52;10.75;;;;;;;9.31;82.11;100290.09;10464066;28;20909;-60
2022/01/02 10:14:01;;;;;;;11.88;10.70;;;;;;;9.27;82.43;100321.34;10464387;28;20503;-58
2022/01/02 10:19:26;;;;;;;11.82;10.35;;;;;;;9.16;82.17;100345.19;10455535;28;20225;-58
2022/01/02 10:24:30;;;;;;;11.38;10.20;;;;;;;8.97;83.18;100321.78;10449447;28;20064;-57
2022/01/02 10:29:45;;;;;;;12.02;10.80;;;;;;;8.96;83.16;100301.50;10456179;28;20079;-58
2022/01/02 10:34:46;;;;;;;13.20;11.07;;;;;;;8.97;83.63;100301.38;10445574;28;20044;-58
2022/01/02 10:39:48;;;;;;;12.07;10.82;;;;;;;8.93;83.85;100280.47;10435249;28;20060;-57
2022/01/02 10:44:49;;;;;;;11.65;10.45;;;;;;;8.98;83.82;100262.44;10440963;28;21001;-58
2022/01/02 10:49:50;;;;;;;10.88;9.77;;;;;;;9.01;83.88;100246.28;10455822;28;20067;-57
2022/01/02 10:54:52;;;;;;;11.25;9.90;;;;;;;9.08;84.06;100236.84;10440902;28;20052;-59
2022/01/02 10:59:57;;;;;;;10.82;9.70;;;;;;;9.04;83.85;100222.13;10456445;28;20047;-58
2022/01/02 11:05:10;;;;;;;11.85;10.63;;;;;;;9.01;83.22;100187.84;10450242;28;20040;-57
2022/01/02 11:10:14;;;;;;;11.70;10.05;;;;;;;9.07;83.57;100197.16;10448841;28;20103;-58
2022/01/02 11:15:21;;;;;;;11.13;9.82;;;;;;;9.05;83.82;100173.38;10448284;28;20051;-58
2022/01/02 11:20:26;;;;;;;11.88;10.65;;;;;;;9.31;82.84;100147.50;10439305;28;20083;-59
2022/01/02 11:25:37;;;;;;;11.40;10.30;;;;;;;9.24;83.02;100150.75;10443485;28;20391;-58
2022/01/02 11:30:40;;;;;;;13.63;10.57;;;;;;;9.20;82.72;100142.16;10445149;28;20044;-58
2022/01/02 11:35:47;;;;;;;12.75;9.73;;;;;;;9.16;83.05;100127.44;10434445;28;20048;-60
2022/01/02 11:40:56;;;;;;;11.68;9.80;;;;;;;9.17;82.72;100118.47;10450187;28;20048;-59
2022/01/02 11:46:27;;;;;;;10.48;9.48;;;;;;;9.28;82.06;100089.28;10444958;28;20048;-61
2022/01/02 11:51:46;;;;;;;11.45;9.52;;;;;;;9.38;81.81;100100.03;10433864;27;20059;-61
2022/01/02 11:56:48;;;;;;;13.23;9.80;;;;;;;9.40;81.05;100114.06;10453830;28;20040;-59
2022/01/02 12:01:51;;;;;;;10.68;9.57;;;;;;;9.47;80.61;100109.97;10451098;28;20058;-59
2022/01/02 12:06:52;;;;;;;11.35;8.57;;;;;;;11.07;73.04;100095.28;10455090;28;21186;-62
2022/01/02 12:12:02;;;;;;;10.35;8.00;;;;;;;11.30;71.38;100114.63;10458138;28;20153;-61
2022/01/02 12:17:11;;;;;;;8.38;7.53;;;;;;;14.34;60.85;100108.19;10455503;28;20040;-61
2022/01/02 12:22:14;;;;;;;8.07;7.03;;;;;;;16.38;53.54;100114.22;10458090;28;20871;-61
2022/01/02 12:27:16;;;;;;;8.93;7.10;;;;;;;18.14;48.03;100101.03;10454040;28;20047;-59
2022/01/02 12:32:21;;;;;;;7.65;6.95;;;;;;;20.44;41.54;100114.13;10425423;28;20047;-60
2022/01/02 12:37:29;;;;;;;7.18;6.47;;;;;;;22.21;37.91;100104.19;10453899;28;20058;-60
2022/01/02 12:42:30;;;;;;;6.47;5.88;;;;;;;23.11;35.17;100070.56;10457714;28;20414;-59
2022/01/02 12:47:32;;;;;;;6.30;5.68;;;;;;;22.85;35.46;100066.78;10449909;28;20053;-60
2022/01/02 12:52:33;;;;;;;6.97;6.00;;;;;;;23.76;33.60;100056.19;10462302;28;20054;-60
2022/01/02 12:57:34;;;;;;;6.22;5.63;;;;;;;24.04;32.85;100041.47;10448773;28;20467;-61
2022/01/02 13:02:36;;;;;;;5.00;4.50;;;;;;;23.39;33.98;100040.44;10438036;28;20068;-58
2022/01/02 13:07:38;;;;;;;5.70;5.05;;;;;;;24.07;33.32;100051.91;10458358;28;20048;-60
2022/01/02 13:12:40;;;;;;;5.82;5.07;;;;;;;25.46;30.91;100037.41;10454921;28;20822;-60
2022/01/02 13:17:44;;;;;;;5.18;4.70;;;;;;;26.14;30.58;100032.78;10444150;28;20052;-60
2022/01/02 13:22:52;;;;;;;5.28;4.78;;;;;;;25.31;30.54;100038.63;10420323;28;20054;-60
2022/01/02 13:28:06;;;;;;;5.50;4.75;;;;;;;25.01;31.18;100033.00;10444099;28;20055;-60
2022/01/02 13:33:20;;;;;;;4.95;4.47;;;;;;;23.94;32.97;100026.44;10434232;28;20586;-58
2022/01/02 13:38:22;;;;;;;5.38;4.35;;;;;;;21.98;35.34;100011.53;10418176;28;20079;-58
2022/01/02 13:43:29;;;;;;;5.25;4.72;;;;;;;19.32;40.97;100017.16;10434114;28;20488;-58
2022/01/02 13:48:30;;;;;;;5.05;4.55;;;;;;;17.52;45.38;100026.44;10423135;28;20051;-60
2022/01/02 13:53:35;;;;;;;4.88;4.47;;;;;;;16.95;46.98;100019.38;10446403;28;20202;-59
2022/01/02 13:58:42;;;;;;;5.38;4.45;;;;;;;15.65;50.33;100029.72;10423588;28;20040;-58
2022/01/02 14:03:44;;;;;;;5.40;4.70;;;;;;;14.29;54.91;100033.69;10440054;28;20373;-60
2022/01/02 14:08:47;;;;;;;5.18;4.68;;;;;;;13.73;57.18;100030.22;10439910;28;20807;-59
2022/01/02 14:14:03;;;;;;;4.63;4.22;;;;;;;13.00;59.91;100040.78;10433377;28;20080;-61
2022/01/02 14:19:04;;;;;;;5.00;4.50;;;;;;;12.72;60.72;100033.53;10433026;28;20832;-59
2022/01/02 14:24:06;;;;;;;5.63;5.07;;;;;;;12.48;62.07;100059.81;10457979;28;20047;-60
2022/01/02 14:29:07;;;;;;;7.03;4.20;;;;;;;12.35;63.13;100044.91;10460617;28;20044;-62
2022/01/02 14:34:09;;;;;;;6.75;4.88;;;;;;;12.31;63.52;100064.88;10447071;28;20149;-60
2022/01/02 14:39:11;;;;;;;6.43;5.47;;;;;;;12.26;63.88;100083.13;10441879;28;20162;-60
2022/01/02 14:44:14;;;;;;;5.43;4.63;;;;;;;12.11;64.51;100087.16;10454110;28;20055;-60
2022/01/02 14:49:16;;;;;;;4.78;4.18;;;;;;;11.89;65.24;100080.19;10449839;28;20498;-61
2022/01/02 14:54:18;;;;;;;6.47;5.05;;;;;;;11.85;66.08;100117.81;10450334;28;20048;-60
2022/01/02 14:59:19;;;;;;;5.13;4.47;;;;;;;11.82;66.69;100122.59;10441332;28;20402;-58
2022/01/02 15:04:21;;;;;;;5.38;4.88;;;;;;;11.73;66.67;100120.72;10445863;28;20153;-60
2022/01/02 15:09:22;;;;;;;5.05;4.55;;;;;;;11.72;67.28;100127.03;10441566;28;20051;-58
2022/01/02 15:14:24;;;;;;;4.63;4.10;;;;;;;11.67;67.57;100117.59;10445917;28;20119;-58
2022/01/02 15:19:26;;;;;;;4.50;4.10;;;;;;;11.61;68.11;100111.97;10437431;28;20064;-58
2022/01/02 15:24:28;;;;;;;4.85;3.90;;;;;;;11.61;68.46;100126.16;10455385;28;20053;-59
2022/01/02 15:29:30;;;;;;;4.97;3.90;;;;;;;11.55;68.60;100118.69;10431510;28;20057;-59
2022/01/02 15:34:33;;;;;;;5.88;4.20;;;;;;;11.61;68.51;100115.47;10440415;28;20056;-59
2022/01/02 15:39:34;;;;;;;3.92;3.53;;;;;;;11.63;68.47;100108.22;10445366;28;20135;-59
2022/01/02 15:44:36;;;;;;;4.30;3.70;;;;;;;11.59;69.05;100112.13;10458934;28;20980;-60
2022/01/02 15:49:37;;;;;;;4.55;3.85;;;;;;;11.55;69.61;100112.50;10457401;28;20407;-58
2022/01/02 15:54:38;;;;;;;4.72;3.92;;;;;;;11.58;69.44;100105.09;10460722;28;20052;-59
2022/01/02 15:59:40;;;;;;;4.30;3.50;;;;;;;11.59;69.79;100117.44;10454384;27;20049;-60
2022/01/02 16:04:41;;;;;;;4.97;4.47;;;;;;;11.59;69.86;100120.13;10454069;28;20542;-60
2022/01/02 16:09:43;;;;;;;4.30;3.90;;;;;;;11.61;70.08;100126.16;10464471;28;20040;-60
2022/01/02 16:14:44;;;;;;;6.40;4.18;;;;;;;11.59;70.26;100119.25;10455849;28;20048;-60
2022/01/02 16:19:45;;;;;;;4.93;3.58;;;;;;;11.57;70.37;100110.53;10450773;27;20048;-60
2022/01/02 16:24:47;;;;;;;7.20;4.03;;;;;;;11.61;70.45;100126.16;10450646;28;20537;-60
2022/01/02 16:29:48;;;;;;;7.07;4.10;;;;;;;11.54;70.89;100127.66;10458317;28;20048;-60
2022/01/02 16:34:50;;;;;;;4.20;3.15;;;;;;;11.46;71.06;100103.50;10453610;28;20154;-60
2022/01/02 16:39:51;;;;;;;5.63;2.85;;;;;;;11.48;70.93;100112.19;10448151;27;20052;-60
2022/01/02 16:44:52;;;;;;;4.40;3.28;;;;;;;11.55;70.93;100116.00;10455171;28;20813;-61
2022/01/02 16:49:54;;;;;;;4.60;3.17;;;;;;;11.57;71.19;100118.53;10449630;28;20048;-59
2022/01/02 16:54:55;;;;;;;3.38;2.47;;;;;;;11.48;71.06;100122.84;10453522;28;20169;-60
2022/01/02 16:59:57;;;;;;;4.60;2.88;;;;;;;11.57;71.21;100107.88;10441449;28;20128;-62
2022/01/02 17:04:59;;;;;;;4.55;3.85;;;;;;;11.56;71.29;100114.19;10456467;28;20040;-59
2022/01/02 17:10:01;;;;;;;5.18;3.35;;;;;;;11.60;71.44;100121.78;10455239;28;20075;-60
2022/01/02 17:15:05;;;;;;;4.53;3.35;;;;;;;11.65;71.33;100103.56;10455803;28;20530;-60
2022/01/02 17:20:09;;;;;;;5.45;3.47;;;;;;;11.64;71.31;100099.22;10451293;28;20070;-59
2022/01/02 17:25:11;;;;;;;6.40;3.05;;;;;;;11.61;71.26;100104.81;10450817;28;20149;-61
2022/01/02 17:30:20;;;;;;;3.92;3.22;;;;;;;11.50;71.12;100092.44;10456912;28;20536;-61
2022/01/02 17:35:21;;;;;;;6.38;3.53;;;;;;;11.59;71.13;100112.13;10472152;28;20434;-60
2022/01/02 17:40:23;;;;;;;8.18;3.53;;;;;;;11.58;70.98;100102.41;10451417;28;20043;-60
2022/01/02 17:45:24;;;;;;;8.75;4.28;;;;;;;11.46;71.41;100080.34;10459101;28;20062;-59
2022/01/02 17:50:26;;;;;;;5.32;3.05;;;;;;;11.52;71.70;100094.97;10454506;28;20441;-59
2022/01/02 17:55:27;;;;;;;5.13;3.38;;;;;;;11.50;71.56;100078.28;10444756;28;20491;-60
2022/01/02 18:00:28;;;;;;;6.07;3.55;;;;;;;11.55;71.85;100078.69;10454656;28;20079;-61
2022/01/02 18:05:30;;;;;;;4.68;3.45;;;;;;;11.48;72.35;100085.53;10433735;28;20053;-58
2022/01/02 18:10:32;;;;;;;6.60;3.50;;;;;;;11.50;72.71;100086.25;10447882;28;20095;-60
2022/01/02 18:15:34;;;;;;;9.35;4.53;;;;;;;11.56;72.78;100096.38;10445503;28;20521;-60
2022/01/02 18:20:37;;;;;;;3.47;3.00;;;;;;;11.54;73.11;100087.66;10439021;28;20368;-60
2022/01/02 18:25:41;;;;;;;5.38;3.13;;;;;;;11.63;73.04;100096.69;10452819;28;20430;-60
2022/01/02 18:30:43;;;;;;;3.90;3.10;;;;;;;11.68;73.31;100081.97;10445232;28;20052;-59
2022/01/02 18:35:44;;;;;;;8.20;3.42;;;;;;;11.67;73.35;100071.44;10437782;28;20094;-60
2022/01/02 18:40:48;;;;;;;7.43;4.60;;;;;;;11.67;73.50;100074.94;10448295;28;20074;-60
2022/01/02 18:45:52;;;;;;;5.90;4.28;;;;;;;11.70;74.11;100078.34;10447372;28;20591;-60
2022/01/02 18:50:54;;;;;;;5.28;2.97;;;;;;;11.68;74.26;100073.97;10447916;28;20063;-60
2022/01/02 18:55:57;;;;;;;6.68;3.95;;;;;;;11.66;74.60;100069.75;10448180;28;20190;-59
2022/01/02 19:00:58;;;;;;;7.00;3.35;;;;;;;11.73;74.88;100065.56;10432629;28;20731;-61
2022/01/02 19:06:01;;;;;;;5.03;3.10;;;;;;;11.72;74.79;100069.22;10416066;28;20171;-61
2022/01/02 19:11:03;;;;;;;6.25;2.85;;;;;;;11.74;74.98;100053.06;10440499;28;21134;-62
2022/01/02 19:16:05;;;;;;;6.82;2.97;;;;;;;11.70;74.74;100041.84;10437625;28;20056;-61
2022/01/02 19:21:06;;;;;;;5.00;3.20;;;;;;;11.67;74.81;100034.94;10437778;28;20137;-60
2022/01/02 19:26:08;;;;;;;4.32;2.20;;;;;;;11.77;75.10;100043.00;10452457;28;20052;-61
2022/01/02 19:31:10;;;;;;;5.10;2.45;;;;;;;11.76;74.86;100038.63;10458456;28;20663;-61
2022/01/02 19:36:11;;;;;;;2.97;2.25;;;;;;;11.78;74.78;100043.81;10454663;28;20048;-61
2022/01/02 19:41:12;;;;;;;6.40;3.60;;;;;;;11.77;74.43;100020.78;10423303;28;20055;-60
2022/01/02 19:46:15;;;;;;;6.05;3.03;;;;;;;11.80;74.48;100023.19;10454962;28;20045;-61
2022/01/02 19:51:17;;;;;;;2.78;1.80;;;;;;;11.80;74.24;100026.72;10450997;28;20060;-61
2022/01/02 19:56:18;;;;;;;4.25;1.85;;;;;;;11.74;74.21;99997.06;10441952;28;20113;-60
2022/01/02 20:01:20;;;;;;;6.60;2.40;;;;;;;11.80;74.09;100007.19;10440474;28;20044;-60
2022/01/02 20:06:22;;;;;;;3.97;2.20;;;;;;;11.75;73.95;99998.78;10401407;28;20449;-62
2022/01/02 20:11:24;;;;;;;4.22;2.10;;;;;;;11.84;74.12;100001.47;10456363;28;20052;-60
2022/01/02 20:16:26;;;;;;;4.07;2.53;;;;;;;11.83;73.97;99991.78;10437746;28;20095;-61
2022/01/02 20:21:28;;;;;;;11.32;3.63;;;;;;;11.84;74.17;99988.13;10452241;28;20056;-60
2022/01/02 20:26:29;;;;;;;4.38;1.83;;;;;;;11.87;73.94;99976.31;10450336;28;20181;-59
2022/01/02 20:31:32;;;;;;;4.75;2.28;;;;;;;11.82;73.93;99978.56;10463915;28;20056;-60
2022/01/02 20:36:34;;;;;;;4.75;2.17;;;;;;;11.89;74.10;99984.19;10441117;28;20060;-61
2022/01/02 20:41:36;;;;;;;7.85;2.67;;;;;;;11.84;73.59;99961.47;10446400;28;20115;-61
2022/01/02 20:46:37;;;;;;;5.45;2.17;;;;;;;11.92;73.61;99962.56;10434657;28;20059;-63
2022/01/02 20:51:39;;;;;;;5.95;2.30;;;;;;;11.88;73.64;99950.53;10446208;28;20210;-61
2022/01/02 20:56:43;;;;;;;3.78;2.28;;;;;;;11.87;73.67;99938.97;10454922;28;20071;-60
2022/01/02 21:01:45;;;;;;;4.38;2.33;;;;;;;11.88;73.57;99950.53;10460344;28;20576;-61
2022/01/02 21:06:46;;;;;;;4.70;2.20;;;;;;;11.92;73.32;99950.09;10467946;28;20051;-61
2022/01/02 21:11:48;;;;;;;5.57;3.00;;;;;;;11.92;73.10;99931.44;10460171;28;20449;-59
2022/01/02 21:16:49;;;;;;;4.85;2.38;;;;;;;11.93;73.04;99922.44;10449462;28;20048;-60
2022/01/02 21:21:50;;;;;;;5.18;2.17;;;;;;;11.85;72.88;99903.63;10454331;28;20261;-60
2022/01/02 21:26:52;;;;;;;3.58;2.45;;;;;;;11.92;72.99;99923.44;10460323;28;20101;-61
2022/01/02 21:31:55;;;;;;;4.07;2.22;;;;;;;11.92;72.98;99914.56;10465603;28;20048;-62
2022/01/02 21:36:56;;;;;;;5.40;2.85;;;;;;;11.90;72.81;99919.19;10457820;28;20050;-60
2022/01/02 21:41:58;;;;;;;4.75;2.50;;;;;;;11.95;72.91;99907.16;10456497;28;20058;-62
2022/01/02 21:46:59;;;;;;;3.40;2.00;;;;;;;11.98;73.01;99904.22;10453063;28;20143;-62
2022/01/02 21:52:01;;;;;;;5.63;2.38;;;;;;;11.96;72.95;99884.81;10457027;28;20048;-61
2022/01/02 21:57:02;;;;;;;7.07;2.95;;;;;;;12.00;72.64;99882.75;10453758;28;20063;-61
2022/01/02 22:02:04;;;;;;;4.93;3.35;;;;;;;11.96;72.84;99878.66;10444926;28;20779;-61
2022/01/02 22:07:08;;;;;;;4.05;2.08;;;;;;;11.94;72.90;99884.13;10452222;28;20530;-62
2022/01/02 22:12:11;;;;;;;5.80;2.63;;;;;;;11.95;72.97;99876.97;10454622;28;20044;-60
2022/01/02 22:17:12;;;;;;;5.97;2.50;;;;;;;11.93;73.09;99871.78;10452127;28;20044;-60
2022/01/02 22:22:14;;;;;;;6.20;2.83;;;;;;;11.94;72.98;99876.13;10453624;28;20422;-59
2022/01/02 22:27:18;;;;;;;5.15;2.70;;;;;;;11.85;73.02;99851.13;10450133;28;20055;-60
2022/01/02 22:32:19;;;;;;;5.55;2.63;;;;;;;11.92;73.36;99915.44;10448658;28;20053;-60
2022/01/02 22:37:21;;;;;;;5.30;2.38;;;;;;;11.88;73.31;99884.69;10450806;28;20525;-64
2022/01/02 22:42:23;;;;;;;8.23;3.40;;;;;;;11.84;73.59;99891.25;10457527;28;20186;-60
2022/01/02 22:47:25;;;;;;;3.65;2.30;;;;;;;11.88;73.76;99906.00;10443684;28;20044;-61
2022/01/02 22:52:27;;;;;;;5.00;2.45;;;;;;;11.94;73.65;99945.47;10455052;28;20155;-62
2022/01/02 22:57:30;;;;;;;5.05;2.42;;;;;;;12.05;73.24;99957.00;10440191;28;20049;-62
2022/01/02 23:02:32;;;;;;;2.60;1.00;;;;;;;11.93;71.43;99964.28;10447758;28;20052;-61
2022/01/02 23:07:34;;;;;;;2.78;0.73;;;;;;;10.64;78.85;99976.44;10439438;28;20083;-62
2022/01/02 23:12:36;;;;;;;3.85;0.80;;;;;;;10.09;83.59;99950.84;10443951;28;20128;-62
2022/01/02 23:17:39;;;;;;;1.25;0.10;;;;;;;9.99;85.59;99958.72;10447595;28;20054;-62